Bradfords Cross Roads, North Carolina
Current Conditions -  °F | °C
As of 5:15 PM on Sunday 23 Nov 2014 (Local Time) from KSVH Reporting Station
Heavy Rain Heavy Rain  
Wind Chill: 39°   Ceiling: 300
Heat Index: 44°   Visibility: 2mi
Dew Point: 43°   Wind: 8mph
Humidity: 99%   Direction: 30°NNE
Pressure: 29.88"   Gusts: NA
Location:  35.8306°N, 80.9003°W
Report Text: KSVH 232215Z AUTO 03007KT 2SM +RA OVC003 06/06 A2988 RMK AO2 P0008 T00640062
Loading
Personal Weather Stations






























Interactive Weather Map New forecast layout! Learn more

10-Day Weather Forecast

Advertisements
Track Severe Weather on mobile